createdAt,value
2023-05-09T00:01:18.615Z,99232.56
2023-05-09T00:03:52.022Z,99225.50
2023-05-09T00:06:25.642Z,99225.69
2023-05-09T00:08:58.917Z,99223.94
2023-05-09T00:11:34.452Z,99236.56
2023-05-09T00:14:08.127Z,99238.47
2023-05-09T00:16:43.622Z,99232.34
2023-05-09T00:27:13.597Z,99219.56
2023-05-09T00:29:53.601Z,99219.75
2023-05-09T00:32:28.829Z,99214.59
2023-05-09T00:35:02.632Z,99214.72
2023-05-09T00:37:36.046Z,99219.28
2023-05-09T00:40:11.629Z,99218.44
2023-05-09T00:54:02.615Z,99212.84
2023-05-09T00:56:36.759Z,99210.38
2023-05-09T00:59:10.624Z,99210.56
2023-05-09T01:01:44.015Z,99207.16
2023-05-09T01:04:19.616Z,99209.03
2023-05-09T01:07:05.560Z,99211.91
2023-05-09T01:09:56.635Z,99204.91
2023-05-09T01:23:46.641Z,99185.16
2023-05-09T01:26:40.638Z,99180.88
2023-05-09T01:29:42.653Z,99180.19
2023-05-09T01:32:21.699Z,99176.75
2023-05-09T01:35:05.699Z,99171.56
2023-05-09T01:48:18.617Z,99164.19
2023-05-09T01:50:54.569Z,99168.84
2023-05-09T01:53:30.625Z,99158.34
2023-05-09T01:56:06.537Z,99159.31
2023-05-09T01:58:42.614Z,99161.22
2023-05-09T02:01:17.056Z,99165.78
2023-05-09T02:14:16.582Z,99157.38
2023-05-09T02:16:56.689Z,99158.44
2023-05-09T02:19:29.864Z,99154.09
2023-05-09T02:22:04.655Z,99158.69
2023-05-09T02:24:38.188Z,99152.56
2023-05-09T02:27:12.614Z,99151.03
2023-05-09T02:29:51.341Z,99143.19
2023-05-09T02:42:46.589Z,99141.09
2023-05-09T02:45:28.617Z,99136.00
2023-05-09T02:48:03.607Z,99144.84
2023-05-09T02:50:37.617Z,99138.88
2023-05-09T02:53:11.297Z,99141.59
2023-05-09T02:55:47.628Z,99139.03
2023-05-09T03:08:59.614Z,99141.22
2023-05-09T03:11:33.049Z,99138.69
2023-05-09T03:14:06.615Z,99142.31
2023-05-09T03:16:40.103Z,99142.50
2023-05-09T03:19:21.598Z,99130.13
2023-05-09T03:21:54.873Z,99131.16
2023-05-09T03:34:45.584Z,99139.59
2023-05-09T03:37:27.103Z,99133.47
2023-05-09T03:40:01.000Z,99140.69
2023-05-09T03:42:39.601Z,99134.59
2023-05-09T03:45:13.204Z,99138.13
2023-05-09T03:47:47.625Z,99149.63
2023-05-09T03:50:22.973Z,99139.06
2023-05-09T04:03:12.634Z,99138.56
2023-05-09T04:05:56.649Z,99141.31
2023-05-09T04:08:34.932Z,99131.50
2023-05-09T04:11:14.601Z,99135.97
2023-05-09T04:13:49.617Z,99131.50
2023-05-09T04:16:49.673Z,99133.38
2023-05-09T04:30:02.613Z,99138.09
2023-05-09T04:32:36.156Z,99138.22
2023-05-09T04:35:10.615Z,99137.25
2023-05-09T04:37:46.950Z,99140.78
2023-05-09T04:40:28.626Z,99134.59
2023-05-09T04:57:16.550Z,99138.72
2023-05-09T05:00:02.617Z,99135.09
2023-05-09T05:02:36.398Z,99127.91
2023-05-09T05:05:13.313Z,99127.72
2023-05-09T05:07:46.885Z,99138.97
2023-05-09T05:10:25.636Z,99130.63
2023-05-09T05:23:43.634Z,99125.47
2023-05-09T05:26:16.934Z,99120.75
2023-05-09T05:28:50.589Z,99124.84
2023-05-09T05:31:25.353Z,99119.25
2023-05-09T05:33:58.821Z,99132.31
2023-05-09T05:36:32.645Z,99124.03
2023-05-09T05:49:22.557Z,99123.34
2023-05-09T05:52:02.617Z,99115.75
2023-05-09T05:54:35.754Z,99113.38
2023-05-09T05:57:15.596Z,99113.84
2023-05-09T05:59:50.397Z,99114.34
2023-05-09T06:15:21.573Z,99110.91
2023-05-09T06:17:55.630Z,99099.81
2023-05-09T06:20:29.606Z,99100.97
2023-05-09T06:23:02.963Z,99105.03
2023-05-09T06:25:36.609Z,99103.97
2023-05-09T06:28:09.833Z,99096.53
2023-05-09T06:30:45.605Z,99097.72
2023-05-09T06:43:55.586Z,99079.47
2023-05-09T06:46:30.864Z,99078.91
2023-05-09T06:49:04.613Z,99080.09
2023-05-09T06:51:37.830Z,99072.28
2023-05-09T06:54:11.577Z,99073.66
2023-05-09T06:56:45.058Z,99066.19
2023-05-09T07:09:35.587Z,99057.03
2023-05-09T07:12:15.589Z,99048.34
2023-05-09T07:14:48.847Z,99047.16
2023-05-09T07:17:23.894Z,99044.13
2023-05-09T07:19:57.876Z,99043.06
2023-05-09T07:36:13.629Z,99018.53
2023-05-09T07:38:46.826Z,99015.97
2023-05-09T07:41:22.438Z,99006.22
2023-05-09T07:43:55.828Z,99000.72
2023-05-09T07:46:29.810Z,99004.38
2023-05-09T07:49:03.142Z,98999.00
2023-05-09T07:51:38.590Z,98990.44
2023-05-09T08:01:58.608Z,98978.72
2023-05-09T08:04:38.730Z,98979.78
2023-05-09T08:07:13.756Z,98976.25
2023-05-09T08:09:47.581Z,98979.16
2023-05-09T08:12:20.810Z,98978.53
2023-05-09T08:14:54.621Z,98967.19
2023-05-09T08:28:44.610Z,98963.28
2023-05-09T08:31:17.900Z,98961.38
2023-05-09T08:33:51.617Z,98952.38
2023-05-09T08:36:25.128Z,98947.63
2023-05-09T08:38:58.640Z,98953.50
2023-05-09T08:41:33.806Z,98942.19
2023-05-09T08:57:49.621Z,98920.16
2023-05-09T09:00:25.277Z,98927.50
2023-05-09T09:02:59.633Z,98934.00
2023-05-09T09:05:41.896Z,98922.66
2023-05-09T09:08:24.594Z,98928.50
2023-05-09T09:10:58.240Z,98931.66
2023-05-09T09:23:50.567Z,98907.50
2023-05-09T09:26:30.621Z,98909.72
2023-05-09T09:29:03.928Z,98905.53
2023-05-09T09:31:38.640Z,98905.16
2023-05-09T09:34:19.529Z,98894.91
2023-05-09T09:36:59.589Z,98900.63
2023-05-09T09:50:22.869Z,98880.50
2023-05-09T09:52:56.632Z,98883.41
2023-05-09T09:55:31.608Z,98890.00
2023-05-09T09:58:16.390Z,98887.75
2023-05-09T10:01:11.640Z,98884.69
2023-05-09T10:17:49.698Z,98867.25
2023-05-09T10:20:30.622Z,98863.75
2023-05-09T10:23:05.937Z,98862.97
2023-05-09T10:25:46.617Z,98857.06
2023-05-09T10:28:27.795Z,98854.53
2023-05-09T10:31:15.649Z,98837.38
2023-05-09T10:44:31.613Z,98815.94
2023-05-09T10:47:06.782Z,98816.13
2023-05-09T10:49:41.596Z,98810.75
2023-05-09T10:52:14.968Z,98803.38
2023-05-09T10:54:49.618Z,98803.94
2023-05-09T10:57:22.827Z,98797.44
2023-05-09T11:10:22.578Z,98784.59
2023-05-09T11:13:04.619Z,98778.47
2023-05-09T11:16:03.586Z,98775.91
2023-05-09T11:18:58.598Z,98774.91
2023-05-09T11:21:35.663Z,98760.38
2023-05-09T11:37:59.601Z,98734.56
2023-05-09T11:40:34.546Z,98730.00
2023-05-09T11:43:08.707Z,98721.47
2023-05-09T11:45:42.362Z,98705.50
2023-05-09T11:48:15.621Z,98714.31
2023-05-09T11:50:48.825Z,98701.78
2023-05-09T12:03:38.701Z,98698.69
2023-05-09T12:06:22.613Z,98699.22
2023-05-09T12:08:56.316Z,98683.00
2023-05-09T12:11:36.589Z,98677.28
2023-05-09T12:14:09.839Z,98672.19
2023-05-09T12:16:52.594Z,98673.34
2023-05-09T12:30:04.596Z,98654.56
2023-05-09T12:32:39.225Z,98643.06
2023-05-09T12:35:14.800Z,98642.22
2023-05-09T12:37:55.942Z,98642.94
2023-05-09T12:40:41.625Z,98643.31
2023-05-09T12:43:14.958Z,98640.97
2023-05-09T12:45:50.574Z,98635.56
2023-05-09T12:56:20.666Z,98613.19
2023-05-09T12:59:01.602Z,98609.16
2023-05-09T13:01:36.885Z,98608.84
2023-05-09T13:04:14.390Z,98605.47
2023-05-09T13:06:49.405Z,98592.94
2023-05-09T13:09:23.632Z,98602.91
2023-05-09T13:11:57.014Z,98599.34
2023-05-09T13:24:47.581Z,98575.38
2023-05-09T13:27:27.598Z,98570.84
2023-05-09T13:30:00.904Z,98560.69
2023-05-09T13:32:34.669Z,98566.97
2023-05-09T13:35:08.819Z,98558.16
2023-05-09T13:50:39.658Z,98534.72
2023-05-09T13:53:13.017Z,98530.66
2023-05-09T13:55:46.660Z,98518.19
2023-05-09T13:58:19.836Z,98523.28
2023-05-09T14:00:53.608Z,98523.66
2023-05-09T14:03:27.081Z,98533.91
2023-05-09T14:06:02.846Z,98527.03
2023-05-09T14:16:31.615Z,98515.06
2023-05-09T14:19:13.241Z,98505.56
2023-05-09T14:21:48.836Z,98504.91
2023-05-09T14:24:22.649Z,98500.81
2023-05-09T14:26:56.045Z,98500.66
2023-05-09T14:29:29.598Z,98490.34
2023-05-09T14:32:02.924Z,98495.72
2023-05-09T14:44:53.591Z,98473.06
2023-05-09T14:47:33.621Z,98472.84
2023-05-09T14:50:08.664Z,98470.13
2023-05-09T14:52:41.632Z,98478.22
2023-05-09T14:55:15.147Z,98462.25
2023-05-09T15:10:46.639Z,98443.09
2023-05-09T15:13:20.153Z,98433.28
2023-05-09T15:15:53.632Z,98437.50
2023-05-09T15:18:26.864Z,98428.28
2023-05-09T15:21:00.649Z,98423.44
2023-05-09T15:23:33.949Z,98418.00
2023-05-09T15:26:09.634Z,98425.78
2023-05-09T15:36:39.595Z,98411.84
2023-05-09T15:39:19.637Z,98405.56
2023-05-09T15:41:54.825Z,98402.00
2023-05-09T15:44:28.614Z,98404.72
2023-05-09T15:47:02.144Z,98398.56
2023-05-09T15:49:35.618Z,98394.16
2023-05-09T15:52:09.936Z,98395.84
2023-05-09T16:05:00.606Z,98378.75
2023-05-09T16:07:40.597Z,98374.09
2023-05-09T16:10:14.335Z,98368.97
2023-05-09T16:12:47.780Z,98367.09
2023-05-09T16:15:21.319Z,98365.41
2023-05-09T16:30:51.669Z,98362.91
2023-05-09T16:33:24.977Z,98350.06
2023-05-09T16:35:58.641Z,98348.94
2023-05-09T16:38:32.052Z,98342.97
2023-05-09T16:41:05.648Z,98345.38
2023-05-09T16:43:38.996Z,98340.53
2023-05-09T16:46:29.641Z,98337.78
2023-05-09T16:56:59.624Z,98337.53
2023-05-09T16:59:39.626Z,98342.88
2023-05-09T17:02:14.826Z,98338.13
2023-05-09T17:04:48.736Z,98333.63
2023-05-09T17:07:21.895Z,98343.38
2023-05-09T17:09:55.688Z,98339.78
2023-05-09T17:12:28.989Z,98323.25
2023-05-09T17:25:19.586Z,98328.47
2023-05-09T17:27:59.641Z,98334.75
2023-05-09T17:30:32.868Z,98328.34
2023-05-09T17:33:06.694Z,98329.66
2023-05-09T17:35:39.867Z,98324.63
2023-05-09T17:51:56.642Z,98333.66
2023-05-09T17:54:29.897Z,98329.28
2023-05-09T17:57:03.626Z,98330.78
2023-05-09T17:59:36.860Z,98325.78
2023-05-09T18:02:10.649Z,98332.38
2023-05-09T18:04:44.042Z,98327.56
2023-05-09T18:07:19.658Z,98320.03
2023-05-09T18:17:19.589Z,98331.06
2023-05-09T18:20:00.709Z,98325.00
2023-05-09T18:22:35.813Z,98325.91
2023-05-09T18:25:09.702Z,98324.09
2023-05-09T18:27:42.865Z,98331.25
2023-05-09T18:30:18.660Z,98330.06
2023-05-09T18:32:51.899Z,98331.28
2023-05-09T18:45:42.617Z,98333.94
2023-05-09T18:48:22.634Z,98334.94
2023-05-09T18:50:55.861Z,98338.47
2023-05-09T18:53:29.658Z,98333.72
2023-05-09T18:56:03.676Z,98333.53
2023-05-09T19:12:18.667Z,98319.84
2023-05-09T19:15:02.483Z,98320.50
2023-05-09T19:17:42.687Z,98318.28
2023-05-09T19:20:16.052Z,98317.94
2023-05-09T19:22:49.886Z,98311.31
2023-05-09T19:25:26.602Z,98315.69
2023-05-09T19:38:23.628Z,98309.94
2023-05-09T19:41:07.651Z,98300.63
2023-05-09T19:43:41.179Z,98297.56
2023-05-09T19:46:14.703Z,98300.59
2023-05-09T19:48:47.924Z,98300.19
2023-05-09T19:51:21.676Z,98295.31
2023-05-09T20:04:33.659Z,98289.56
2023-05-09T20:07:06.877Z,98281.78
2023-05-09T20:09:40.665Z,98284.09
2023-05-09T20:12:13.899Z,98270.25
2023-05-09T20:14:47.628Z,98289.44
2023-05-09T20:17:21.097Z,98277.41
2023-05-09T20:33:33.625Z,98274.31
2023-05-09T20:36:00.436Z,98265.56
2023-05-09T20:38:40.693Z,98263.16
2023-05-09T20:41:13.844Z,98270.53
2023-05-09T20:43:47.634Z,98263.06
2023-05-09T20:46:20.902Z,98261.69
2023-05-09T20:59:12.613Z,98250.59
2023-05-09T21:01:52.704Z,98242.97
2023-05-09T21:04:25.887Z,98246.66
2023-05-09T21:06:59.694Z,98247.81
2023-05-09T21:09:33.061Z,98243.59
2023-05-09T21:12:06.954Z,98243.91
2023-05-09T21:25:19.624Z,98235.03
2023-05-09T21:27:52.884Z,98227.25
2023-05-09T21:30:28.664Z,98233.66
2023-05-09T21:33:02.081Z,98235.78
2023-05-09T21:35:35.647Z,98234.09
2023-05-09T21:52:12.617Z,98218.00
2023-05-09T21:54:52.651Z,98218.31
2023-05-09T21:57:25.984Z,98207.81
2023-05-09T21:59:59.640Z,98208.81
2023-05-09T22:02:40.053Z,98206.41
2023-05-09T22:05:21.448Z,98195.97
2023-05-09T22:07:56.772Z,98194.38
2023-05-09T22:18:04.858Z,98184.00
2023-05-09T22:20:38.086Z,98180.75
2023-05-09T22:25:43.173Z,98178.97
2023-05-09T22:28:10.046Z,98172.88
2023-05-09T22:30:51.659Z,98171.34
2023-05-09T22:44:46.633Z,98174.91
2023-05-09T22:47:21.881Z,98180.59
2023-05-09T22:49:56.648Z,98172.81
2023-05-09T22:52:37.149Z,98162.63
2023-05-09T22:55:17.694Z,98158.41
2023-05-09T22:57:50.887Z,98146.09
2023-05-09T23:11:26.625Z,98143.88
2023-05-09T23:14:08.665Z,98148.59
2023-05-09T23:16:41.885Z,98136.13
2023-05-09T23:19:15.663Z,98135.41
2023-05-09T23:21:49.017Z,98134.75
2023-05-09T23:24:22.677Z,98123.28
2023-05-09T23:26:55.945Z,98131.63
2023-05-09T23:39:46.617Z,98118.34
2023-05-09T23:42:26.629Z,98117.66
2023-05-09T23:44:59.922Z,98101.81
2023-05-09T23:47:33.663Z,98110.84
2023-05-09T23:50:08.553Z,98107.75
2023-05-09T23:52:41.647Z,98118.81
